sensor_id;sensor_type;location;lat;lon;timestamp;temperature;humidity
17066;DHT22;23120;52.336;21.182;2023-04-01T00:00:27;10.80;96.40
17066;DHT22;23120;52.336;21.182;2023-04-01T00:02:53;10.80;96.50
17066;DHT22;23120;52.336;21.182;2023-04-01T00:05:21;10.80;96.90
17066;DHT22;23120;52.336;21.182;2023-04-01T00:07:49;10.80;96.80
17066;DHT22;23120;52.336;21.182;2023-04-01T00:10:17;10.80;96.70
17066;DHT22;23120;52.336;21.182;2023-04-01T00:12:45;10.80;96.70
17066;DHT22;23120;52.336;21.182;2023-04-01T00:15:12;10.80;96.60
17066;DHT22;23120;52.336;21.182;2023-04-01T00:17:39;10.80;96.50
17066;DHT22;23120;52.336;21.182;2023-04-01T00:20:07;10.80;96.70
17066;DHT22;23120;52.336;21.182;2023-04-01T00:22:35;10.80;96.70
17066;DHT22;23120;52.336;21.182;2023-04-01T00:25:02;10.80;96.70
17066;DHT22;23120;52.336;21.182;2023-04-01T00:27:29;10.80;96.50
17066;DHT22;23120;52.336;21.182;2023-04-01T00:29:58;10.70;96.40
17066;DHT22;23120;52.336;21.182;2023-04-01T00:32:25;10.70;96.10
17066;DHT22;23120;52.336;21.182;2023-04-01T00:34:52;10.70;96.40
17066;DHT22;23120;52.336;21.182;2023-04-01T00:37:19;10.70;96.20
17066;DHT22;23120;52.336;21.182;2023-04-01T00:39:46;10.70;96.00
17066;DHT22;23120;52.336;21.182;2023-04-01T00:42:14;10.70;95.90
17066;DHT22;23120;52.336;21.182;2023-04-01T00:44:41;10.70;95.30
17066;DHT22;23120;52.336;21.182;2023-04-01T00:47:09;10.70;96.00
17066;DHT22;23120;52.336;21.182;2023-04-01T00:49:39;10.70;96.00
17066;DHT22;23120;52.336;21.182;2023-04-01T00:52:08;10.70;96.00
17066;DHT22;23120;52.336;21.182;2023-04-01T00:54:38;10.70;95.80
17066;DHT22;23120;52.336;21.182;2023-04-01T00:57:09;10.70;96.00
17066;DHT22;23120;52.336;21.182;2023-04-01T00:59:41;10.70;95.90
17066;DHT22;23120;52.336;21.182;2023-04-01T01:02:12;10.60;96.10
17066;DHT22;23120;52.336;21.182;2023-04-01T01:04:40;10.60;96.20
17066;DHT22;23120;52.336;21.182;2023-04-01T01:07:15;10.60;96.50
17066;DHT22;23120;52.336;21.182;2023-04-01T01:09:47;10.60;96.40
17066;DHT22;23120;52.336;21.182;2023-04-01T01:12:21;10.60;96.50
17066;DHT22;23120;52.336;21.182;2023-04-01T01:14:55;10.60;96.40
17066;DHT22;23120;52.336;21.182;2023-04-01T01:17:33;10.60;96.70
17066;DHT22;23120;52.336;21.182;2023-04-01T01:26:30;10.50;96.90
17066;DHT22;23120;52.336;21.182;2023-04-01T01:29:07;10.50;96.80
17066;DHT22;23120;52.336;21.182;2023-04-01T01:31:45;10.50;97.30
17066;DHT22;23120;52.336;21.182;2023-04-01T01:34:20;10.50;97.30
17066;DHT22;23120;52.336;21.182;2023-04-01T01:36:54;10.50;96.80
17066;DHT22;23120;52.336;21.182;2023-04-01T01:39:27;10.50;96.80
17066;DHT22;23120;52.336;21.182;2023-04-01T01:41:57;10.50;96.80
17066;DHT22;23120;52.336;21.182;2023-04-01T01:44:26;10.50;96.80
17066;DHT22;23120;52.336;21.182;2023-04-01T01:46:55;10.50;96.80
17066;DHT22;23120;52.336;21.182;2023-04-01T01:49:23;10.50;96.90
17066;DHT22;23120;52.336;21.182;2023-04-01T01:51:52;10.50;96.80
17066;DHT22;23120;52.336;21.182;2023-04-01T01:54:19;10.50;96.60
17066;DHT22;23120;52.336;21.182;2023-04-01T01:56:49;10.40;96.60
17066;DHT22;23120;52.336;21.182;2023-04-01T01:59:20;10.50;97.00
17066;DHT22;23120;52.336;21.182;2023-04-01T02:01:50;10.60;96.80
17066;DHT22;23120;52.336;21.182;2023-04-01T02:04:19;10.50;96.80
17066;DHT22;23120;52.336;21.182;2023-04-01T02:06:50;10.50;97.10
17066;DHT22;23120;52.336;21.182;2023-04-01T02:09:20;10.50;97.30
17066;DHT22;23120;52.336;21.182;2023-04-01T02:11:49;10.50;97.00
17066;DHT22;23120;52.336;21.182;2023-04-01T02:14:19;10.50;97.60
17066;DHT22;23120;52.336;21.182;2023-04-01T02:16:49;10.50;97.70
17066;DHT22;23120;52.336;21.182;2023-04-01T02:19:18;10.50;97.40
17066;DHT22;23120;52.336;21.182;2023-04-01T02:21:50;10.50;97.20
17066;DHT22;23120;52.336;21.182;2023-04-01T02:24:20;10.50;97.20
17066;DHT22;23120;52.336;21.182;2023-04-01T02:26:50;10.50;97.20
17066;DHT22;23120;52.336;21.182;2023-04-01T02:29:20;10.50;98.10
17066;DHT22;23120;52.336;21.182;2023-04-01T02:31:49;10.50;97.70
17066;DHT22;23120;52.336;21.182;2023-04-01T02:34:16;10.50;97.30
17066;DHT22;23120;52.336;21.182;2023-04-01T02:36:44;10.50;97.80
17066;DHT22;23120;52.336;21.182;2023-04-01T02:39:11;10.50;97.90
17066;DHT22;23120;52.336;21.182;2023-04-01T02:41:42;10.50;98.00
17066;DHT22;23120;52.336;21.182;2023-04-01T02:44:09;10.50;98.00
17066;DHT22;23120;52.336;21.182;2023-04-01T02:46:37;10.50;97.80
17066;DHT22;23120;52.336;21.182;2023-04-01T02:49:04;10.50;97.40
17066;DHT22;23120;52.336;21.182;2023-04-01T02:51:31;10.50;97.00
17066;DHT22;23120;52.336;21.182;2023-04-01T02:53:58;10.50;97.20
17066;DHT22;23120;52.336;21.182;2023-04-01T02:56:25;10.50;97.20
17066;DHT22;23120;52.336;21.182;2023-04-01T02:58:54;10.50;96.90
17066;DHT22;23120;52.336;21.182;2023-04-01T03:01:21;10.50;97.20
17066;DHT22;23120;52.336;21.182;2023-04-01T03:03:49;10.50;97.40
17066;DHT22;23120;52.336;21.182;2023-04-01T03:06:16;10.50;97.70
17066;DHT22;23120;52.336;21.182;2023-04-01T03:08:43;10.50;97.40
17066;DHT22;23120;52.336;21.182;2023-04-01T03:11:11;10.50;97.40
17066;DHT22;23120;52.336;21.182;2023-04-01T03:13:38;10.50;97.30
17066;DHT22;23120;52.336;21.182;2023-04-01T03:16:06;10.50;97.70
17066;DHT22;23120;52.336;21.182;2023-04-01T03:18:34;10.50;98.00
17066;DHT22;23120;52.336;21.182;2023-04-01T03:21:13;10.50;98.10
17066;DHT22;23120;52.336;21.182;2023-04-01T03:23:40;10.50;98.30
17066;DHT22;23120;52.336;21.182;2023-04-01T03:26:07;10.50;98.20
17066;DHT22;23120;52.336;21.182;2023-04-01T03:28:34;10.50;98.70
17066;DHT22;23120;52.336;21.182;2023-04-01T03:31:00;10.50;98.90
17066;DHT22;23120;52.336;21.182;2023-04-01T03:33:32;10.50;98.90
17066;DHT22;23120;52.336;21.182;2023-04-01T03:35:59;10.50;98.80
17066;DHT22;23120;52.336;21.182;2023-04-01T03:38:26;10.50;98.70
17066;DHT22;23120;52.336;21.182;2023-04-01T03:40:53;10.50;99.20
17066;DHT22;23120;52.336;21.182;2023-04-01T03:43:20;10.50;99.00
17066;DHT22;23120;52.336;21.182;2023-04-01T03:45:48;10.50;98.80
17066;DHT22;23120;52.336;21.182;2023-04-01T03:48:16;10.50;99.00
17066;DHT22;23120;52.336;21.182;2023-04-01T03:50:44;10.50;99.30
17066;DHT22;23120;52.336;21.182;2023-04-01T03:53:12;10.50;99.00
17066;DHT22;23120;52.336;21.182;2023-04-01T03:55:42;10.50;99.00
17066;DHT22;23120;52.336;21.182;2023-04-01T03:58:09;10.50;99.10
17066;DHT22;23120;52.336;21.182;2023-04-01T04:00:36;10.50;99.10
17066;DHT22;23120;52.336;21.182;2023-04-01T04:03:03;10.50;99.10
17066;DHT22;23120;52.336;21.182;2023-04-01T04:05:33;10.50;99.20
17066;DHT22;23120;52.336;21.182;2023-04-01T04:08:01;10.50;99.00
17066;DHT22;23120;52.336;21.182;2023-04-01T04:10:28;10.50;99.00
17066;DHT22;23120;52.336;21.182;2023-04-01T04:12:56;10.50;99.10
17066;DHT22;23120;52.336;21.182;2023-04-01T04:15:25;10.40;99.10
17066;DHT22;23120;52.336;21.182;2023-04-01T04:17:52;10.40;99.20
17066;DHT22;23120;52.336;21.182;2023-04-01T04:20:18;10.40;99.40
17066;DHT22;23120;52.336;21.182;2023-04-01T04:22:45;10.40;99.40
17066;DHT22;23120;52.336;21.182;2023-04-01T04:25:13;10.40;99.40
17066;DHT22;23120;52.336;21.182;2023-04-01T04:27:40;10.40;99.40
17066;DHT22;23120;52.336;21.182;2023-04-01T04:30:10;10.40;99.70
17066;DHT22;23120;52.336;21.182;2023-04-01T04:32:37;10.40;99.70
17066;DHT22;23120;52.336;21.182;2023-04-01T04:35:05;10.40;99.80
17066;DHT22;23120;52.336;21.182;2023-04-01T04:37:33;10.40;99.90
17066;DHT22;23120;52.336;21.182;2023-04-01T04:39:59;10.40;99.90
17066;DHT22;23120;52.336;21.182;2023-04-01T04:42:28;10.40;99.90
17066;DHT22;23120;52.336;21.182;2023-04-01T04:45:01;10.40;99.90
17066;DHT22;23120;52.336;21.182;2023-04-01T04:47:29;10.40;99.90
17066;DHT22;23120;52.336;21.182;2023-04-01T04:49:56;10.40;99.90
17066;DHT22;23120;52.336;21.182;2023-04-01T04:52:23;10.40;99.90
17066;DHT22;23120;52.336;21.182;2023-04-01T04:54:49;10.40;99.90
17066;DHT22;23120;52.336;21.182;2023-04-01T04:57:16;10.40;99.90
17066;DHT22;23120;52.336;21.182;2023-04-01T04:59:52;10.40;99.90
17066;DHT22;23120;52.336;21.182;2023-04-01T05:02:33;10.40;99.90
17066;DHT22;23120;52.336;21.182;2023-04-01T05:05:00;10.40;99.90
17066;DHT22;23120;52.336;21.182;2023-04-01T05:07:27;10.40;99.90
17066;DHT22;23120;52.336;21.182;2023-04-01T05:09:54;10.40;99.90
17066;DHT22;23120;52.336;21.182;2023-04-01T05:12:21;10.40;99.90
17066;DHT22;23120;52.336;21.182;2023-04-01T05:14:56;10.40;99.90
17066;DHT22;23120;52.336;21.182;2023-04-01T05:17:23;10.40;99.90
17066;DHT22;23120;52.336;21.182;2023-04-01T05:19:50;10.40;99.90
17066;DHT22;23120;52.336;21.182;2023-04-01T05:22:17;10.40;99.90
17066;DHT22;23120;52.336;21.182;2023-04-01T05:24:44;10.40;99.90
17066;DHT22;23120;52.336;21.182;2023-04-01T05:27:11;10.40;99.80
17066;DHT22;23120;52.336;21.182;2023-04-01T05:29:40;10.40;99.90
17066;DHT22;23120;52.336;21.182;2023-04-01T05:32:14;10.40;99.90
17066;DHT22;23120;52.336;21.182;2023-04-01T05:34:41;10.40;99.80
17066;DHT22;23120;52.336;21.182;2023-04-01T05:37:08;10.40;99.90
17066;DHT22;23120;52.336;21.182;2023-04-01T05:39:36;10.40;99.90
17066;DHT22;23120;52.336;21.182;2023-04-01T05:42:05;10.40;99.90
17066;DHT22;23120;52.336;21.182;2023-04-01T05:44:33;10.40;99.90
17066;DHT22;23120;52.336;21.182;2023-04-01T05:47:21;10.40;99.90
17066;DHT22;23120;52.336;21.182;2023-04-01T05:49:48;10.40;99.90
17066;DHT22;23120;52.336;21.182;2023-04-01T05:52:15;10.40;99.90
17066;DHT22;23120;52.336;21.182;2023-04-01T05:54:42;10.40;99.90
17066;DHT22;23120;52.336;21.182;2023-04-01T05:57:09;10.40;99.70
17066;DHT22;23120;52.336;21.182;2023-04-01T05:59:36;10.40;99.90
17066;DHT22;23120;52.336;21.182;2023-04-01T06:02:03;10.40;99.90
17066;DHT22;23120;52.336;21.182;2023-04-01T06:04:34;10.40;99.70
17066;DHT22;23120;52.336;21.182;2023-04-01T06:07:10;10.40;99.70
17066;DHT22;23120;52.336;21.182;2023-04-01T06:09:37;10.40;99.70
17066;DHT22;23120;52.336;21.182;2023-04-01T06:15:08;10.40;99.50
17066;DHT22;23120;52.336;21.182;2023-04-01T06:17:48;10.40;99.60
17066;DHT22;23120;52.336;21.182;2023-04-01T06:20:24;10.50;99.60
17066;DHT22;23120;52.336;21.182;2023-04-01T06:23:06;10.50;99.50
17066;DHT22;23120;52.336;21.182;2023-04-01T06:25:59;10.50;99.90
17066;DHT22;23120;52.336;21.182;2023-04-01T06:28:45;10.50;99.50
17066;DHT22;23120;52.336;21.182;2023-04-01T06:31:25;10.50;99.60
17066;DHT22;23120;52.336;21.182;2023-04-01T06:34:04;10.50;99.70
17066;DHT22;23120;52.336;21.182;2023-04-01T06:36:55;10.50;99.70
17066;DHT22;23120;52.336;21.182;2023-04-01T06:39:46;10.50;99.70
17066;DHT22;23120;52.336;21.182;2023-04-01T06:42:31;10.50;99.90
17066;DHT22;23120;52.336;21.182;2023-04-01T06:45:16;10.60;99.90
17066;DHT22;23120;52.336;21.182;2023-04-01T06:48:14;10.70;99.90
17066;DHT22;23120;52.336;21.182;2023-04-01T06:51:04;10.70;99.80
17066;DHT22;23120;52.336;21.182;2023-04-01T06:54:00;10.80;99.80
17066;DHT22;23120;52.336;21.182;2023-04-01T06:56:42;10.80;99.50
17066;DHT22;23120;52.336;21.182;2023-04-01T06:59:18;10.90;99.50
17066;DHT22;23120;52.336;21.182;2023-04-01T07:01:50;10.90;99.40
17066;DHT22;23120;52.336;21.182;2023-04-01T07:04:21;11.00;99.20
17066;DHT22;23120;52.336;21.182;2023-04-01T07:06:53;11.00;99.20
17066;DHT22;23120;52.336;21.182;2023-04-01T07:09:25;11.10;99.10
17066;DHT22;23120;52.336;21.182;2023-04-01T07:12:15;11.10;99.00
17066;DHT22;23120;52.336;21.182;2023-04-01T07:15:04;11.20;98.70
17066;DHT22;23120;52.336;21.182;2023-04-01T07:17:35;11.20;98.60
17066;DHT22;23120;52.336;21.182;2023-04-01T07:20:10;11.30;98.30
17066;DHT22;23120;52.336;21.182;2023-04-01T07:22:40;11.30;98.00
17066;DHT22;23120;52.336;21.182;2023-04-01T07:25:33;11.40;97.90
17066;DHT22;23120;52.336;21.182;2023-04-01T07:28:21;11.50;97.90
17066;DHT22;23120;52.336;21.182;2023-04-01T07:31:07;11.50;97.40
17066;DHT22;23120;52.336;21.182;2023-04-01T07:33:40;11.60;97.30
17066;DHT22;23120;52.336;21.182;2023-04-01T07:36:16;11.70;97.10
17066;DHT22;23120;52.336;21.182;2023-04-01T07:38:55;11.70;97.40
17066;DHT22;23120;52.336;21.182;2023-04-01T07:41:51;11.80;97.00
17066;DHT22;23120;52.336;21.182;2023-04-01T07:44:25;11.80;96.70
17066;DHT22;23120;52.336;21.182;2023-04-01T07:47:08;11.90;96.60
17066;DHT22;23120;52.336;21.182;2023-04-01T07:49:45;11.90;96.40
17066;DHT22;23120;52.336;21.182;2023-04-01T07:52:22;11.90;96.20
17066;DHT22;23120;52.336;21.182;2023-04-01T07:55:03;12.00;96.00
17066;DHT22;23120;52.336;21.182;2023-04-01T07:57:36;12.00;96.30
17066;DHT22;23120;52.336;21.182;2023-04-01T08:00:12;12.20;96.20
17066;DHT22;23120;52.336;21.182;2023-04-01T08:03:07;12.20;96.00
17066;DHT22;23120;52.336;21.182;2023-04-01T08:05:41;12.20;95.80
17066;DHT22;23120;52.336;21.182;2023-04-01T08:08:19;12.30;95.70
17066;DHT22;23120;52.336;21.182;2023-04-01T08:11:16;12.30;95.50
17066;DHT22;23120;52.336;21.182;2023-04-01T08:14:07;12.30;95.30
17066;DHT22;23120;52.336;21.182;2023-04-01T08:16:57;12.30;95.40
17066;DHT22;23120;52.336;21.182;2023-04-01T08:19:46;12.40;95.60
17066;DHT22;23120;52.336;21.182;2023-04-01T08:22:25;12.40;96.00
17066;DHT22;23120;52.336;21.182;2023-04-01T08:24:58;12.40;95.60
17066;DHT22;23120;52.336;21.182;2023-04-01T08:27:33;12.50;95.40
17066;DHT22;23120;52.336;21.182;2023-04-01T08:30:06;12.60;95.20
17066;DHT22;23120;52.336;21.182;2023-04-01T08:32:43;12.60;95.10
17066;DHT22;23120;52.336;21.182;2023-04-01T08:35:18;12.60;95.00
17066;DHT22;23120;52.336;21.182;2023-04-01T08:37:49;12.60;94.90
17066;DHT22;23120;52.336;21.182;2023-04-01T08:40:37;12.60;94.70
17066;DHT22;23120;52.336;21.182;2023-04-01T08:43:12;12.70;94.60
17066;DHT22;23120;52.336;21.182;2023-04-01T08:45:49;12.70;94.60
17066;DHT22;23120;52.336;21.182;2023-04-01T08:48:42;12.70;94.50
17066;DHT22;23120;52.336;21.182;2023-04-01T08:54:31;12.70;94.50
17066;DHT22;23120;52.336;21.182;2023-04-01T08:57:08;12.80;94.40
17066;DHT22;23120;52.336;21.182;2023-04-01T09:00:09;12.80;94.40
17066;DHT22;23120;52.336;21.182;2023-04-01T09:03:15;12.80;94.20
17066;DHT22;23120;52.336;21.182;2023-04-01T09:06:06;12.80;94.50
17066;DHT22;23120;52.336;21.182;2023-04-01T09:08:51;12.80;94.70
17066;DHT22;23120;52.336;21.182;2023-04-01T09:11:31;12.80;94.60
17066;DHT22;23120;52.336;21.182;2023-04-01T09:14:41;12.80;94.60
17066;DHT22;23120;52.336;21.182;2023-04-01T09:17:48;12.80;94.40
17066;DHT22;23120;52.336;21.182;2023-04-01T09:20:53;12.90;94.20
17066;DHT22;23120;52.336;21.182;2023-04-01T09:26:29;12.90;93.90
17066;DHT22;23120;52.336;21.182;2023-04-01T09:29:09;13.00;93.60
17066;DHT22;23120;52.336;21.182;2023-04-01T09:31:50;13.00;93.40
17066;DHT22;23120;52.336;21.182;2023-04-01T09:34:53;12.90;93.30
17066;DHT22;23120;52.336;21.182;2023-04-01T09:37:34;12.90;93.40
17066;DHT22;23120;52.336;21.182;2023-04-01T09:40:16;12.90;93.60
17066;DHT22;23120;52.336;21.182;2023-04-01T09:43:02;12.80;93.70
17066;DHT22;23120;52.336;21.182;2023-04-01T09:45:48;12.70;93.80
17066;DHT22;23120;52.336;21.182;2023-04-01T09:48:35;12.80;94.00
17066;DHT22;23120;52.336;21.182;2023-04-01T09:51:13;12.70;94.00
17066;DHT22;23120;52.336;21.182;2023-04-01T09:53:55;12.60;94.10
17066;DHT22;23120;52.336;21.182;2023-04-01T10:09:05;12.50;94.30
17066;DHT22;23120;52.336;21.182;2023-04-01T10:12:00;12.50;94.30
17066;DHT22;23120;52.336;21.182;2023-04-01T10:14:46;12.40;94.30
17066;DHT22;23120;52.336;21.182;2023-04-01T10:20:52;12.40;94.10
17066;DHT22;23120;52.336;21.182;2023-04-01T10:23:48;12.40;94.30
17066;DHT22;23120;52.336;21.182;2023-04-01T10:26:41;12.50;94.50
17066;DHT22;23120;52.336;21.182;2023-04-01T10:29:56;12.50;94.70
17066;DHT22;23120;52.336;21.182;2023-04-01T10:36:17;12.50;94.70
17066;DHT22;23120;52.336;21.182;2023-04-01T10:39:17;12.50;94.70
17066;DHT22;23120;52.336;21.182;2023-04-01T10:52:20;12.60;94.20
17066;DHT22;23120;52.336;21.182;2023-04-01T10:55:19;12.60;94.10
17066;DHT22;23120;52.336;21.182;2023-04-01T11:01:42;12.70;94.20
17066;DHT22;23120;52.336;21.182;2023-04-01T11:05:03;12.70;94.40
17066;DHT22;23120;52.336;21.182;2023-04-01T11:11:24;12.90;94.60
17066;DHT22;23120;52.336;21.182;2023-04-01T11:14:15;13.00;94.70
17066;DHT22;23120;52.336;21.182;2023-04-01T11:17:15;13.10;94.70
17066;DHT22;23120;52.336;21.182;2023-04-01T11:20:07;13.30;94.50
17066;DHT22;23120;52.336;21.182;2023-04-01T11:23:02;13.40;94.50
17066;DHT22;23120;52.336;21.182;2023-04-01T11:25:49;13.50;94.20
17066;DHT22;23120;52.336;21.182;2023-04-01T11:29:00;13.60;93.70
17066;DHT22;23120;52.336;21.182;2023-04-01T11:31:45;13.70;93.70
17066;DHT22;23120;52.336;21.182;2023-04-01T11:34:55;13.80;92.90
17066;DHT22;23120;52.336;21.182;2023-04-01T11:37:32;13.80;92.60
17066;DHT22;23120;52.336;21.182;2023-04-01T11:40:27;13.80;92.50
17066;DHT22;23120;52.336;21.182;2023-04-01T11:43:15;13.90;91.90
17066;DHT22;23120;52.336;21.182;2023-04-01T11:46:10;13.80;91.40
17066;DHT22;23120;52.336;21.182;2023-04-01T11:48:44;13.80;91.70
17066;DHT22;23120;52.336;21.182;2023-04-01T11:51:32;13.80;92.10
17066;DHT22;23120;52.336;21.182;2023-04-01T11:54:12;13.70;92.40
17066;DHT22;23120;52.336;21.182;2023-04-01T11:56:54;13.60;92.70
17066;DHT22;23120;52.336;21.182;2023-04-01T12:02:33;13.50;93.10
17066;DHT22;23120;52.336;21.182;2023-04-01T12:05:24;13.40;93.40
17066;DHT22;23120;52.336;21.182;2023-04-01T12:08:13;13.30;93.50
17066;DHT22;23120;52.336;21.182;2023-04-01T12:10:46;13.20;93.50
17066;DHT22;23120;52.336;21.182;2023-04-01T12:13:27;13.20;93.50
17066;DHT22;23120;52.336;21.182;2023-04-01T12:16:07;13.20;93.80
17066;DHT22;23120;52.336;21.182;2023-04-01T12:18:41;13.10;93.70
17066;DHT22;23120;52.336;21.182;2023-04-01T12:21:17;13.10;94.50
17066;DHT22;23120;52.336;21.182;2023-04-01T12:24:09;13.10;94.40
17066;DHT22;23120;52.336;21.182;2023-04-01T12:26:58;13.10;94.10
17066;DHT22;23120;52.336;21.182;2023-04-01T12:29:52;13.10;93.90
17066;DHT22;23120;52.336;21.182;2023-04-01T12:32:27;13.10;94.10
17066;DHT22;23120;52.336;21.182;2023-04-01T12:35:17;13.20;94.30
17066;DHT22;23120;52.336;21.182;2023-04-01T12:37:52;13.20;94.20
17066;DHT22;23120;52.336;21.182;2023-04-01T12:40:45;13.30;93.80
17066;DHT22;23120;52.336;21.182;2023-04-01T12:43:28;13.30;93.50
17066;DHT22;23120;52.336;21.182;2023-04-01T12:46:07;13.40;93.80
17066;DHT22;23120;52.336;21.182;2023-04-01T12:49:12;13.50;93.60
17066;DHT22;23120;52.336;21.182;2023-04-01T12:52:05;13.50;93.60
17066;DHT22;23120;52.336;21.182;2023-04-01T12:58:13;13.70;92.70
17066;DHT22;23120;52.336;21.182;2023-04-01T13:00:54;13.80;92.30
17066;DHT22;23120;52.336;21.182;2023-04-01T13:03:41;13.80;91.90
17066;DHT22;23120;52.336;21.182;2023-04-01T13:06:23;13.80;92.10
17066;DHT22;23120;52.336;21.182;2023-04-01T13:09:00;13.90;91.60
17066;DHT22;23120;52.336;21.182;2023-04-01T13:11:37;13.90;91.40
17066;DHT22;23120;52.336;21.182;2023-04-01T13:14:25;13.90;91.30
17066;DHT22;23120;52.336;21.182;2023-04-01T13:16:58;13.90;90.90
17066;DHT22;23120;52.336;21.182;2023-04-01T13:19:36;13.90;91.10
17066;DHT22;23120;52.336;21.182;2023-04-01T13:22:07;13.90;91.00
17066;DHT22;23120;52.336;21.182;2023-04-01T13:24:47;13.90;91.00
17066;DHT22;23120;52.336;21.182;2023-04-01T13:27:20;13.80;91.10
17066;DHT22;23120;52.336;21.182;2023-04-01T13:30:04;13.80;91.20
17066;DHT22;23120;52.336;21.182;2023-04-01T13:32:41;13.80;91.20
17066;DHT22;23120;52.336;21.182;2023-04-01T13:35:26;13.80;91.30
17066;DHT22;23120;52.336;21.182;2023-04-01T13:38:05;13.70;91.40
17066;DHT22;23120;52.336;21.182;2023-04-01T13:40:40;13.70;91.60
17066;DHT22;23120;52.336;21.182;2023-04-01T13:43:13;13.70;91.70
17066;DHT22;23120;52.336;21.182;2023-04-01T13:46:06;13.70;91.80
17066;DHT22;23120;52.336;21.182;2023-04-01T13:49:02;13.70;91.80
17066;DHT22;23120;52.336;21.182;2023-04-01T13:51:50;13.70;91.70
17066;DHT22;23120;52.336;21.182;2023-04-01T13:54:31;13.70;91.80
17066;DHT22;23120;52.336;21.182;2023-04-01T13:57:12;13.70;91.80
17066;DHT22;23120;52.336;21.182;2023-04-01T14:00:01;13.70;91.90
17066;DHT22;23120;52.336;21.182;2023-04-01T14:02:51;13.60;92.00
17066;DHT22;23120;52.336;21.182;2023-04-01T14:05:44;13.60;92.20
17066;DHT22;23120;52.336;21.182;2023-04-01T14:08:25;13.60;92.60
17066;DHT22;23120;52.336;21.182;2023-04-01T14:11:03;13.60;92.90
17066;DHT22;23120;52.336;21.182;2023-04-01T14:13:41;13.60;93.20
17066;DHT22;23120;52.336;21.182;2023-04-01T14:16:24;13.50;93.50
17066;DHT22;23120;52.336;21.182;2023-04-01T14:19:08;13.50;93.60
17066;DHT22;23120;52.336;21.182;2023-04-01T14:21:41;13.40;93.70
17066;DHT22;23120;52.336;21.182;2023-04-01T14:24:20;13.40;93.90
17066;DHT22;23120;52.336;21.182;2023-04-01T14:29:59;13.30;93.80
17066;DHT22;23120;52.336;21.182;2023-04-01T14:32:35;13.30;93.80
17066;DHT22;23120;52.336;21.182;2023-04-01T14:35:25;13.30;93.90
17066;DHT22;23120;52.336;21.182;2023-04-01T14:38:24;13.20;94.10
17066;DHT22;23120;52.336;21.182;2023-04-01T14:40:56;13.20;94.00
17066;DHT22;23120;52.336;21.182;2023-04-01T14:43:47;13.00;94.00
17066;DHT22;23120;52.336;21.182;2023-04-01T14:46:40;13.10;94.00
17066;DHT22;23120;52.336;21.182;2023-04-01T14:49:19;13.00;94.00
17066;DHT22;23120;52.336;21.182;2023-04-01T14:51:48;12.90;94.00
17066;DHT22;23120;52.336;21.182;2023-04-01T14:54:17;12.90;94.10
17066;DHT22;23120;52.336;21.182;2023-04-01T14:56:50;12.80;94.10
17066;DHT22;23120;52.336;21.182;2023-04-01T14:59:27;12.80;94.30
17066;DHT22;23120;52.336;21.182;2023-04-01T15:02:01;12.70;94.40
17066;DHT22;23120;52.336;21.182;2023-04-01T15:04:46;12.70;94.80
17066;DHT22;23120;52.336;21.182;2023-04-01T15:13:13;12.50;94.70
17066;DHT22;23120;52.336;21.182;2023-04-01T15:15:53;12.40;94.80
17066;DHT22;23120;52.336;21.182;2023-04-01T15:18:34;12.40;94.90
17066;DHT22;23120;52.336;21.182;2023-04-01T15:21:23;12.40;95.00
17066;DHT22;23120;52.336;21.182;2023-04-01T15:23:59;12.30;95.00
17066;DHT22;23120;52.336;21.182;2023-04-01T15:26:48;12.30;95.00
17066;DHT22;23120;52.336;21.182;2023-04-01T15:29:41;12.20;95.00
17066;DHT22;23120;52.336;21.182;2023-04-01T15:32:17;12.20;95.10
17066;DHT22;23120;52.336;21.182;2023-04-01T15:34:51;12.10;95.10
17066;DHT22;23120;52.336;21.182;2023-04-01T15:37:31;12.10;95.20
17066;DHT22;23120;52.336;21.182;2023-04-01T15:40:11;12.10;95.10
17066;DHT22;23120;52.336;21.182;2023-04-01T15:42:53;12.00;95.20
17066;DHT22;23120;52.336;21.182;2023-04-01T15:45:39;12.00;95.20
17066;DHT22;23120;52.336;21.182;2023-04-01T15:48:25;11.90;95.20
17066;DHT22;23120;52.336;21.182;2023-04-01T15:51:10;11.90;95.20
17066;DHT22;23120;52.336;21.182;2023-04-01T15:54:16;11.90;95.20
17066;DHT22;23120;52.336;21.182;2023-04-01T15:57:01;11.80;95.10
17066;DHT22;23120;52.336;21.182;2023-04-01T15:59:51;11.80;95.10
17066;DHT22;23120;52.336;21.182;2023-04-01T16:02:24;11.70;95.10
17066;DHT22;23120;52.336;21.182;2023-04-01T16:04:59;11.60;95.00
17066;DHT22;23120;52.336;21.182;2023-04-01T16:07:40;11.60;95.00
17066;DHT22;23120;52.336;21.182;2023-04-01T16:10:32;11.60;95.00
17066;DHT22;23120;52.336;21.182;2023-04-01T16:13:16;11.50;95.00
17066;DHT22;23120;52.336;21.182;2023-04-01T16:15:53;11.40;95.10
17066;DHT22;23120;52.336;21.182;2023-04-01T16:21:28;11.40;95.50
17066;DHT22;23120;52.336;21.182;2023-04-01T16:24:12;11.30;95.20
17066;DHT22;23120;52.336;21.182;2023-04-01T16:26:47;11.30;95.20
17066;DHT22;23120;52.336;21.182;2023-04-01T16:29:22;11.30;95.20
17066;DHT22;23120;52.336;21.182;2023-04-01T16:32:00;11.20;95.30
17066;DHT22;23120;52.336;21.182;2023-04-01T16:34:34;11.20;95.20
17066;DHT22;23120;52.336;21.182;2023-04-01T16:37:07;11.20;95.30
17066;DHT22;23120;52.336;21.182;2023-04-01T16:39:46;11.10;95.10
17066;DHT22;23120;52.336;21.182;2023-04-01T16:42:26;11.20;95.30
17066;DHT22;23120;52.336;21.182;2023-04-01T16:44:59;11.00;95.20
17066;DHT22;23120;52.336;21.182;2023-04-01T16:47:30;11.00;95.10
17066;DHT22;23120;52.336;21.182;2023-04-01T16:50:06;11.00;95.00
17066;DHT22;23120;52.336;21.182;2023-04-01T16:52:54;10.90;94.90
17066;DHT22;23120;52.336;21.182;2023-04-01T16:55:35;10.90;94.90
17066;DHT22;23120;52.336;21.182;2023-04-01T16:58:10;10.80;94.80
17066;DHT22;23120;52.336;21.182;2023-04-01T17:00:44;10.80;94.90
17066;DHT22;23120;52.336;21.182;2023-04-01T17:03:17;10.80;94.90
17066;DHT22;23120;52.336;21.182;2023-04-01T17:06:01;10.70;94.80
17066;DHT22;23120;52.336;21.182;2023-04-01T17:08:41;10.70;94.90
17066;DHT22;23120;52.336;21.182;2023-04-01T17:11:18;10.70;95.00
17066;DHT22;23120;52.336;21.182;2023-04-01T17:13:54;10.60;95.10
17066;DHT22;23120;52.336;21.182;2023-04-01T17:16:38;10.60;95.30
17066;DHT22;23120;52.336;21.182;2023-04-01T17:19:17;10.60;95.30
17066;DHT22;23120;52.336;21.182;2023-04-01T17:21:54;10.60;95.50
17066;DHT22;23120;52.336;21.182;2023-04-01T17:24:46;10.50;95.50
17066;DHT22;23120;52.336;21.182;2023-04-01T17:27:29;10.50;95.50
17066;DHT22;23120;52.336;21.182;2023-04-01T17:30:15;10.50;95.80